Les résultats vous sont offerts par

Télécharger en pdf

La Madone - 8 km

12/11/2017 - Velars sur Ouche

182 classés sur 192 inscrits

Catégorie Ordre Scratch Dossard Nom Prénom Sexe Temps
CA - F 1 79 555  DINET  JULIANE F 00:48:11
2 98 691  CUCIS  LOLA F 00:51:36
3 140 537  COADOU  CLEMENTINE F 00:56:00
CA - M 1 5 679  DE LASIMACKER  SALOMON M 00:33:55
2 15 526  BRULE  MAXIME M 00:35:51
3 20 684  FERREIRA  MATHIAS M 00:36:49
4 33 683  LEGER  CORENTIN M 00:41:34
5 43 621  RICHARD  TANGUY M 00:43:03
JU - F 1 68 667  BROCHAIS  ELISE F 00:46:18
2 178 527  BURILLE  SARA F 01:08:10
JU - M 1 4 552  DILLENSEGER  CLEMENT M 00:33:46
2 7 627  SEGARD  ELWAN M 00:34:05
3 21 604  MOREAU  JOFFREY M 00:36:49
ES - F 1 67 671  WONQUE  JULIE F 00:46:18
2 124 587  LODS  PERRINE F 00:54:14
3 154 503  BARBE  HELENE F 00:57:35
4 155 598  MERCIER  CLOTILDE F 00:57:35
SE - F 1 14 568  GIRARDOT  ADELAIDE F 00:35:48
2 16 638  VOUILLON  NOEMIE F 00:36:03
3 41 678  HEITZMANN  SANDRA F 00:42:59
4 51 588  LOISY  ALINE F 00:44:06
5 57 501  ARBINET  LAUREEN F 00:44:44
6 58 676  LEROY  AURELIE F 00:44:51
7 62 534  CHAVENTON  VIRGINIE F 00:45:53
8 63 626  SALIGNON  LAURE ALINE F 00:45:58
9 66 686  BUDEL  LAURENCE F 00:46:13
10 70 677  ROUSSEAU  SABRINA F 00:46:59
11 71 579  JOIGNEAULT  CLAIRE F 00:47:03
12 72 549  DERAIL  EMILIE F 00:47:13
13 73 515  BORNEL  PERRINE F 00:47:14
14 75 661  GUERITAINE  LAURE F 00:47:28
15 76 697  SCHILLING  DIANE F 00:47:30
16 81 664  FARAG  MYLENE F 00:48:52
17 82 612  PILLON  ANGELINE F 00:48:52
18 83 665  CHAPUIS  MARIE F 00:48:53
19 88 634  VANNIER  LUCIE F 00:50:22
20 91 575  HENKY  PAILIN F 00:50:29
21 93 530  CESCUTTI  MARINE F 00:50:41
22 95 548  DELFERRIERE  EMILIE F 00:50:49
23 97 673  ROUSSEAU  JOELLE F 00:51:02
24 101 546  DELABY  CELINE F 00:52:00
25 104 576  HUMBLIN  ANNE LISE F 00:52:29
26 106 533  CHAVANCE  MANON F 00:52:48
27 107 606  NICOLAS  AUDE F 00:52:59
28 110 557  EVRARD  CECILE F 00:53:16
29 113 513  BONVALLET  CAROLINE F 00:53:29
30 114 609  PARISOT  AUDREY F 00:53:30
31 115 651  GOBET  AURELIE F 00:53:41
32 119 540  COMTE  ISABELLE F 00:53:53
33 122 559  FLECHEUX  CAROLE F 00:54:03
34 125 586  LEROY (GILLMANN)  VIRGINIE F 00:54:18
35 127 628  TALLENAYE  MYLENE F 00:54:36
36 129 563  GAUDILLIER  MELANIE F 00:54:39
37 130 581  KRUMM  LAURIE F 00:54:55
38 132 608  PAILLE  BLANDINE F 00:55:14
39 133 688  FRANET  CLEMENCE F 00:55:32
40 145 566  GERARD  STEPHANIE F 00:56:33
41 147 520  BOUNEFIKHA  SALIMA F 00:57:04
42 148 682  DELETRE  ALICE F 00:57:10
43 150 524  BRETIN  MARIE F 00:57:22
44 152 601  MINE  GABRIELLE F 00:57:30
45 156 602  MONCHAUZOU  ALIX F 00:57:36
46 157 577  ISSARTEL  BLANDINE F 00:57:56
47 161 567  GIBERT  VIOLAINE F 00:58:14
48 163 591  MACLE  BENEDICTE F 00:58:39
49 164 561  FUENTES  CHARLOTTE F 00:59:17
50 165 624  ROUBOT  ANAIS F 00:59:40
51 166 636  VILLEROT  SANDRA F 01:00:03
52 168 695  LHUILLIER  NOEMIE F 01:00:55
53 171 672  DECHAUME  AMANDINE F 01:01:25
54 173 660  * Retiré à la demande du participant   F 01:01:35
55 176 614  PODECHARD  SOPHIE F 01:03:24
56 179 617  RAMIREZ  GLWADYS F 01:08:30
57 180 529  CALANDRE  MELANIE F 01:09:07
58 181 528  CALANDRE  LAURE F 01:09:08
SE - M 1 1 657  CHEVALIER  GREGOIRE M 00:31:26
2 3 623  ROLAND  JEREMY M 00:33:22
3 6 584  LAVIER  MATTHIEU M 00:34:01
4 8 551  DI GIROLAMO  DOMINIQUE M 00:34:42
5 10 597  MASSUT  FLORIAN M 00:35:13
6 12 632  TONOT  VICTOR M 00:35:38
7 17 562  GATINES  GAEL M 00:36:16
8 19 538  COLLARDOT  BENOIT M 00:36:36
9 22 553  DIMITRIJEVIC  JORDAN M 00:38:02
10 24 694  ROUSSEL  SEBASTIEN M 00:39:09
11 27 583  LAVAUX  MICHAEL M 00:40:50
12 29 619  RIBEIRO  LOIC M 00:41:01
13 30 642  BEUTEAU MAIRET  DAMIEN M 00:41:02
14 36 544  COUTURIER  ROMAIN M 00:42:05
15 39 674  LIODARTD  FREDERIC M 00:42:46
16 42 596  MASSON  NICOLAS M 00:43:01
17 44 685  BREUILLE  YANN M 00:43:08
18 47 550  DESBREE  JEREMY M 00:43:49
19 60 545  DELABY  ARNAUD M 00:45:05
20 77 507  BLONDEAU  MAXIME M 00:48:03
21 84 629  TALUCIER  HENRI M 00:49:05
22 92 521  BOURGEOIS  XAVIER M 00:50:40
23 94 585  LE MEUR  THIBAULT M 00:50:42
24 96 616  RAMIREZ  GAETAN M 00:50:50
25 102 644  GRILLOT  NICOLAS M 00:52:28
26 103 645  DINOT  OLIVIER M 00:52:28
27 118 613  PLOYER  BENJAMIN M 00:53:53
28 151 558  FAUCONET  FLORIAN M 00:57:29
29 167 593  MARMIER  LOIC M 01:00:10
30 169 696  BOICHUT  ANTOINE M 01:00:55
31 170 532  CHANTEREAUX  CLEMENT M 01:01:03
32 182 656  BOUVET  GREGOIRE M 01:18:43
M1 - F 1 55 522  BOURIANT  CLAIRE F 00:44:29
2 78 625  ROUBOT  NATHALIE F 00:48:11
3 80 509  BONNAVENTURE  JOSIANE F 00:48:12
4 105 646  BROIN  NADINE F 00:52:38
5 108 595  MARTINET  JULIA F 00:53:10
6 109 693  FRANCHI  EMMANUELLE F 00:53:14
7 111 502  ARNOULD  FRANCINE F 00:53:26
8 126 630  THEVENAUT  FRANCINE F 00:54:33
9 131 556  DUROVRAY  MURIEL F 00:54:57
10 134 620  RICHARD  SEVERINE F 00:55:39
11 135 541  COMTET  EMMANUELLE F 00:55:49
12 138 654  BERLANGA  AGNES F 00:55:52
13 142 618  REPLUMARD  ALINE F 00:56:19
14 146 589  LOPEZ  CATHY F 00:57:00
15 149 512  BONSANS  STEPHANIE F 00:57:13
16 159 670  WONQUE  VIRGINIE F 00:58:05
17 162 622  ROBIN  SOPHIE F 00:58:18
18 172 689  GAYOT  SABINE F 01:01:25
19 175 504  BAREL  PRISCILLE F 01:02:07
M1 - M 1 2 635  VASSARD  FRANCOIS M 00:31:34
2 9 505  BELORGEY  JEAN FRANCOIS M 00:35:04
3 18 637  VILO  CHRISTOPHE M 00:36:30
4 23 560  FROSSARD  PHILIPPE M 00:38:09
5 31 610  PERRIN  MICHAEL M 00:41:09
6 32 511  BONSANS  DAVID M 00:41:26
7 40 658  PASQUET  OLIVIER M 00:42:50
8 45 687  BARON  OLIVIER M 00:43:32
9 46 692  MASSON  DAVID M 00:43:38
10 48 531  CHAMPAGNOL  ERIC M 00:43:51
11 49 649  SAMSON  JEAN PHILIPPE M 00:43:51
12 50 590  LOPEZ  MARC M 00:43:56
13 59 652  LOPPINET  LAURENT M 00:44:55
14 61 648  LECURET  NICOLAS M 00:45:07
15 69 653  CACAUD  JEAN PHILIPPE M 00:46:24
16 87 571  GUIGNARD  LAURENT M 00:50:18
17 99 514  BORDAT  BERTRAND M 00:51:46
18 100 547  DELETTRE  ALEXANDRE M 00:51:46
19 112 690  JASSIONES  NICOLAS M 00:53:28
20 158 578  ISSARTEL  GUILLAUME M 00:57:57
M2 - F 1 37 516  BORNEL  VERONIQUE F 00:42:35
2 116 607  OTHENIN  FLORENCE F 00:53:43
3 117 573  HANRIOT DUCHEMIN  MARIE ODILE F 00:53:46
4 120 600  MILLOT REVEAU  NATHALIE F 00:54:00
5 121 594  MAROT  VERONIQUE F 00:54:02
6 128 539  COMMEAUX  ISABEL F 00:54:36
7 136 655  VALANDRO  MARYSE F 00:55:51
8 137 506  BERNSTEIN  BRIGITTE F 00:55:51
9 139 592  MAILLARD  SYLVIE F 00:55:53
10 144 519  BOULEY  EVELYNE F 00:56:32
M2 - M 1 11 641  ALIBERT  JEAN PIERRE M 00:35:29
2 13 564  GEAY  CHRISTOPHE M 00:35:42
3 25 523  BRENIAUX  EMMANUEL M 00:39:18
4 26 554  DINET  GILLES M 00:40:09
5 28 603  MONNOT  GILBERT M 00:40:54
6 34 668  POZZOBON  ALAIN M 00:41:37
7 35 647  BROIN  ROMAIN M 00:41:38
8 38 675  LACAILLE  CHRISTOPHE M 00:42:41
9 53 574  HARSTRICH  LUC M 00:44:19
10 54 536  COADOU  ANDRE M 00:44:20
11 56 643  BEUCHE  JEAN PHILIPPE M 00:44:37
12 64 681  DELETTRE  MICHEL M 00:45:58
13 74 570  GRANDPERRET  DIDIER M 00:47:16
14 86 542  COUETTE  DIDIER M 00:49:50
15 141 580  KRUMM  GERARD M 00:56:12
16 143 518  BOULEY  BERNARD M 00:56:31
17 153 510  BONNAVENTURE  PIERRE M 00:57:30
18 174 659  VIENNET  JEAN PIERRE M 01:01:36
M3 - F 1 160 605  NICOLAS  ANNE F 00:58:06
M3 - M 1 52 572  GUMERY  YVES M 00:44:16
2 65 599  MEURGEY  JEAN MARC M 00:46:07
3 85 669  MICHAUT  GUY M 00:49:11
4 89 633  TOURIGNY  JEAN LUC M 00:50:26
5 90 650  CUCIS  JEAN CLAUDE M 00:50:27
6 123 611  PIEROT  ERIC M 00:54:06
7 177 615  PRETET  CHRISTIAN M 01:03:25

 

 

Les résultats vous sont offerts par

Télécharger en pdf

 

 

 

 

 

 

 

 

 

 

 

 

 

 

 

 

 

 

 

 

 

 

 

chronometrage,chronométrage, sportif, chrono, course, course à pied, trail, trails, couse nature, puce